Aérodrome :
LOGIN :

S'inscrire | Disclaimer

   EN    FR    IT 

 










Légende :    VFR   VFR Marginal   IFR   IFR Intensif   IFR Très Intensif
Visi : 
Plafond : 
>= 8 km
>= 3000ft
5 à 8 km
1000 à 3000 ft
1500m à 5 km
500 à 1000 ft
800 à 1500m
200 à 500 ft
< 800m
< 200 ft
Symboles :   Orages  Brouillard  Fortes neiges  Fortes précipitations  Vent > 20 kt
SIGMETs :   Divers  Orages  Givrage  Turbulence  Onde Orograph.  Cendres Volcan.






- Altitude de l'aérodrome : 423 ft
- Code IATA : PIS


LFBI - Poitiers

DERNIER METAR :
  • 242130Z AUTO 22011KT 9999 OVC013 09/07 Q1018 TEMPO 4000 -RA BKN008

METARs EXPIRÉS :
  • 242100Z AUTO 21011KT 9999 BKN016 OVC023 09/07 Q1018 TEMPO 4000 -RA BKN008
  • 242030Z AUTO 20010KT 9999 OVC020 09/07 Q1019 TEMPO 4000 -RA BKN008
  • 242000Z AUTO 22011KT 9999 OVC020 09/07 Q1019 TEMPO 4000 -RA BKN008
  • 241930Z AUTO 23011KT 200V260 9999 OVC017 09/06 Q1019 TEMPO 4000 -RA BKN008
  • 241900Z AUTO 23012KT 9999 OVC019 09/06 Q1020 TEMPO 4000 -RA BKN008

TAF TAF LFBI
Valide du 24 à 18h jusqu'au 25 à 18h UTC


241700Z 2418/2518 21010KT 9999 BKN015
PROB30
TEMPO 2419/2424 4000 -RA BKN008
BECMG 2500/2502 4000 -RA BKN009
TEMPO 2502/2508 2000 RA OVC004
BECMG 2508/2510 27010KT 9999 NSW BKN020
PROB40
TEMPO 2513/2518 27015G30KT 4000 -SHRA BKN020TCU



MET'MAP, la Météo Aéronautique d'un coup d'oeil ! - Copyright ORBIFLY Décembre 2007 - Disclaimer

ORBIFLY MET'MAP TEAM :

Programmation & Développement : Alexandra Zaïnal
Sur une idée originale de : Baudouin d'Aumeries
Assistance à la programmation : Marc-Olivier Méhu
Soutien technique & logistique : Manuel Goepfert

Contact : metmap@orbifly.com




SOURCES & CREDITS :

   NOAA